Pagrindinis puslapis
METAR-TAF:

METAR-TAF

Oro uostai :

Lake City, Florida, Jungtinės Amerikos Valstijos

platuma: 30-10-55N, ilguma: 082-34-37W, Aukštis: 61 m

Dabartinis oras

Ataskaita buvo paskelbta 22 minutes, ne 17:15 UTC
Vėjas 4 kt iš Šiaurės Vakarų
Temperatūra 20°C
Drėgmė 43%
Slėgis 1015 hPa
Matomumas: 16.1 km
Giedras dangus

METAR: KLCQ 171715Z AUTO 32004KT 10SM CLR 20/07 A2997 RMK AO2

Laikas: 13:37 (17:37 UTC)


TAF: trūkstamas

Orai ataskaitas ir orų prognozės (METAR, TAF).

turimą stotys yra geltonos ir raudonos taškus žemėlapyje.

Perkelti pele per norėdami pamatyti stoties vardą.

Tada spustelėkite, norėdami matyti oro stebėjimo ir prognozės.

Norėdami pakeisti žemėlapį: spustelėkite ant žalios mygtukų su juodo kryžiaus žemyn,; žalią mygtuką su brūkšneliu, jei norite nutolinti; arba žalių rodyklių gretimoms žemėlapius.


METAR-TAF: